sensor_id;sensor_type;location;lat;lon;timestamp;pressure;altitude;pressure_sealevel;temperature;humidity
64294;BME280;50636;45.596;5.258;2023-05-12T00:02:09;98411.47;;;15.61;74.49
64294;BME280;50636;45.596;5.258;2023-05-12T00:04:34;98417.28;;;15.74;74.60
64294;BME280;50636;45.596;5.258;2023-05-12T00:07:01;98416.50;;;15.74;72.80
64294;BME280;50636;45.596;5.258;2023-05-12T00:09:28;98411.94;;;15.41;73.20
64294;BME280;50636;45.596;5.258;2023-05-12T00:11:53;98419.81;;;15.35;73.68
64294;BME280;50636;45.596;5.258;2023-05-12T00:14:19;98413.38;;;15.31;73.54
64294;BME280;50636;45.596;5.258;2023-05-12T00:16:45;98414.59;;;15.41;73.83
64294;BME280;50636;45.596;5.258;2023-05-12T00:19:18;98404.66;;;15.48;73.37
64294;BME280;50636;45.596;5.258;2023-05-12T00:21:44;98400.56;;;15.23;72.11
64294;BME280;50636;45.596;5.258;2023-05-12T00:24:13;98390.72;;;15.07;72.77
64294;BME280;50636;45.596;5.258;2023-05-12T00:26:39;98405.22;;;15.04;72.18
64294;BME280;50636;45.596;5.258;2023-05-12T00:29:05;98407.53;;;15.01;72.45
64294;BME280;50636;45.596;5.258;2023-05-12T00:31:30;98405.25;;;14.92;73.10
64294;BME280;50636;45.596;5.258;2023-05-12T00:33:56;98401.00;;;15.03;73.21
64294;BME280;50636;45.596;5.258;2023-05-12T00:36:22;98388.34;;;15.22;72.05
64294;BME280;50636;45.596;5.258;2023-05-12T00:38:48;98391.22;;;15.49;70.87
64294;BME280;50636;45.596;5.258;2023-05-12T00:41:13;98388.47;;;15.61;69.70
64294;BME280;50636;45.596;5.258;2023-05-12T00:43:39;98394.78;;;15.43;69.59
64294;BME280;50636;45.596;5.258;2023-05-12T00:46:05;98388.88;;;15.36;70.17
64294;BME280;50636;45.596;5.258;2023-05-12T00:48:31;98388.06;;;15.35;70.83
64294;BME280;50636;45.596;5.258;2023-05-12T00:50:59;98387.13;;;15.58;70.79
64294;BME280;50636;45.596;5.258;2023-05-12T00:53:25;98380.59;;;15.78;70.39
64294;BME280;50636;45.596;5.258;2023-05-12T00:55:51;98383.28;;;16.00;70.22
64294;BME280;50636;45.596;5.258;2023-05-12T00:58:17;98378.69;;;16.12;69.44
64294;BME280;50636;45.596;5.258;2023-05-12T01:00:43;98379.16;;;16.09;69.35
64294;BME280;50636;45.596;5.258;2023-05-12T01:03:10;98384.09;;;16.01;69.44
64294;BME280;50636;45.596;5.258;2023-05-12T01:05:46;98378.31;;;15.87;68.90
64294;BME280;50636;45.596;5.258;2023-05-12T01:08:13;98381.75;;;15.53;70.00
64294;BME280;50636;45.596;5.258;2023-05-12T01:10:44;98378.91;;;15.26;70.67
64294;BME280;50636;45.596;5.258;2023-05-12T01:13:09;98374.69;;;14.96;72.31
64294;BME280;50636;45.596;5.258;2023-05-12T01:15:45;98375.38;;;14.63;72.75
64294;BME280;50636;45.596;5.258;2023-05-12T01:18:11;98369.31;;;14.51;74.53
64294;BME280;50636;45.596;5.258;2023-05-12T01:20:39;98364.94;;;14.56;74.20
64294;BME280;50636;45.596;5.258;2023-05-12T01:23:06;98377.50;;;14.78;74.69
64294;BME280;50636;45.596;5.258;2023-05-12T01:25:33;98367.84;;;15.12;74.55
64294;BME280;50636;45.596;5.258;2023-05-12T01:27:59;98356.94;;;15.09;73.70
64294;BME280;50636;45.596;5.258;2023-05-12T01:30:25;98354.38;;;15.14;72.69
64294;BME280;50636;45.596;5.258;2023-05-12T01:32:52;98353.97;;;15.05;72.88
64294;BME280;50636;45.596;5.258;2023-05-12T01:35:18;98357.09;;;15.19;72.98
64294;BME280;50636;45.596;5.258;2023-05-12T01:37:43;98355.28;;;15.36;72.62
64294;BME280;50636;45.596;5.258;2023-05-12T01:40:11;98359.22;;;15.51;72.14
64294;BME280;50636;45.596;5.258;2023-05-12T01:42:38;98352.97;;;15.57;72.30
64294;BME280;50636;45.596;5.258;2023-05-12T01:45:05;98354.34;;;15.60;72.38
64294;BME280;50636;45.596;5.258;2023-05-12T01:47:31;98346.56;;;15.70;71.56
64294;BME280;50636;45.596;5.258;2023-05-12T01:49:57;98356.59;;;15.85;70.63
64294;BME280;50636;45.596;5.258;2023-05-12T01:52:23;98353.53;;;15.93;70.05
64294;BME280;50636;45.596;5.258;2023-05-12T01:54:49;98358.00;;;16.09;69.06
64294;BME280;50636;45.596;5.258;2023-05-12T01:57:16;98363.00;;;16.28;68.26
64294;BME280;50636;45.596;5.258;2023-05-12T01:59:41;98354.38;;;16.37;67.79
64294;BME280;50636;45.596;5.258;2023-05-12T02:02:07;98351.38;;;16.51;67.22
64294;BME280;50636;45.596;5.258;2023-05-12T02:04:33;98348.41;;;16.69;66.26
64294;BME280;50636;45.596;5.258;2023-05-12T02:06:59;98353.50;;;16.76;65.65
64294;BME280;50636;45.596;5.258;2023-05-12T02:09:26;98349.25;;;16.75;65.39
64294;BME280;50636;45.596;5.258;2023-05-12T02:11:51;98342.84;;;16.71;65.04
64294;BME280;50636;45.596;5.258;2023-05-12T02:14:18;98344.09;;;16.63;64.96
64294;BME280;50636;45.596;5.258;2023-05-12T02:16:43;98347.75;;;16.57;65.18
64294;BME280;50636;45.596;5.258;2023-05-12T02:19:09;98350.06;;;16.53;65.15
64294;BME280;50636;45.596;5.258;2023-05-12T02:21:35;98348.78;;;16.56;64.86
64294;BME280;50636;45.596;5.258;2023-05-12T02:24:00;98349.09;;;16.37;63.98
64294;BME280;50636;45.596;5.258;2023-05-12T02:26:26;98343.78;;;16.15;64.07
64294;BME280;50636;45.596;5.258;2023-05-12T02:28:52;98345.97;;;16.02;65.01
64294;BME280;50636;45.596;5.258;2023-05-12T02:31:17;98341.84;;;15.72;64.58
64294;BME280;50636;45.596;5.258;2023-05-12T02:33:43;98351.34;;;15.39;64.97
64294;BME280;50636;45.596;5.258;2023-05-12T02:36:09;98354.78;;;15.06;66.37
64294;BME280;50636;45.596;5.258;2023-05-12T02:38:34;98339.88;;;15.00;67.11
64294;BME280;50636;45.596;5.258;2023-05-12T02:41:03;98341.78;;;15.04;67.24
64294;BME280;50636;45.596;5.258;2023-05-12T02:43:29;98328.38;;;14.77;67.44
64294;BME280;50636;45.596;5.258;2023-05-12T02:45:54;98335.06;;;14.68;68.83
64294;BME280;50636;45.596;5.258;2023-05-12T02:48:20;98326.28;;;14.79;68.40
64294;BME280;50636;45.596;5.258;2023-05-12T02:50:46;98331.66;;;14.84;68.36
64294;BME280;50636;45.596;5.258;2023-05-12T02:53:11;98326.16;;;15.03;68.28
64294;BME280;50636;45.596;5.258;2023-05-12T02:55:37;98323.56;;;15.20;67.64
64294;BME280;50636;45.596;5.258;2023-05-12T02:58:03;98324.50;;;15.13;67.51
64294;BME280;50636;45.596;5.258;2023-05-12T03:00:29;98326.69;;;15.33;67.74
64294;BME280;50636;45.596;5.258;2023-05-12T03:02:54;98324.91;;;15.39;67.27
64294;BME280;50636;45.596;5.258;2023-05-12T03:05:20;98316.19;;;15.55;67.21
64294;BME280;50636;45.596;5.258;2023-05-12T03:07:47;98319.50;;;15.80;66.56
64294;BME280;50636;45.596;5.258;2023-05-12T03:10:14;98317.03;;;15.95;65.70
64294;BME280;50636;45.596;5.258;2023-05-12T03:12:40;98318.03;;;15.72;65.20
64294;BME280;50636;45.596;5.258;2023-05-12T03:15:06;98317.59;;;15.63;66.37
64294;BME280;50636;45.596;5.258;2023-05-12T03:17:33;98320.91;;;15.70;66.21
64294;BME280;50636;45.596;5.258;2023-05-12T03:19:59;98320.66;;;15.72;65.90
64294;BME280;50636;45.596;5.258;2023-05-12T03:22:24;98314.50;;;15.66;65.68
64294;BME280;50636;45.596;5.258;2023-05-12T03:24:50;98320.91;;;15.36;65.78
64294;BME280;50636;45.596;5.258;2023-05-12T03:27:16;98322.28;;;15.22;66.72
64294;BME280;50636;45.596;5.258;2023-05-12T03:29:42;98314.81;;;15.19;67.51
64294;BME280;50636;45.596;5.258;2023-05-12T03:32:07;98317.53;;;15.24;67.16
64294;BME280;50636;45.596;5.258;2023-05-12T03:34:33;98312.25;;;15.24;66.98
64294;BME280;50636;45.596;5.258;2023-05-12T03:36:59;98309.59;;;15.41;67.40
64294;BME280;50636;45.596;5.258;2023-05-12T03:39:27;98305.50;;;15.67;66.95
64294;BME280;50636;45.596;5.258;2023-05-12T03:41:53;98311.84;;;15.83;65.93
64294;BME280;50636;45.596;5.258;2023-05-12T03:44:19;98303.91;;;15.83;65.63
64294;BME280;50636;45.596;5.258;2023-05-12T03:46:44;98306.97;;;15.75;64.89
64294;BME280;50636;45.596;5.258;2023-05-12T03:49:10;98302.84;;;15.67;65.15
64294;BME280;50636;45.596;5.258;2023-05-12T03:51:36;98305.69;;;15.44;65.57
64294;BME280;50636;45.596;5.258;2023-05-12T03:54:01;98307.13;;;15.34;66.25
64294;BME280;50636;45.596;5.258;2023-05-12T03:56:27;98308.09;;;15.45;66.70
64294;BME280;50636;45.596;5.258;2023-05-12T03:58:53;98311.13;;;15.71;66.35
64294;BME280;50636;45.596;5.258;2023-05-12T04:01:19;98302.13;;;15.89;65.54
64294;BME280;50636;45.596;5.258;2023-05-12T04:03:45;98305.97;;;15.98;65.31
64294;BME280;50636;45.596;5.258;2023-05-12T04:06:11;98299.50;;;16.11;65.41
64294;BME280;50636;45.596;5.258;2023-05-12T04:08:36;98306.03;;;16.25;64.73
64294;BME280;50636;45.596;5.258;2023-05-12T04:11:02;98308.25;;;16.33;64.27
64294;BME280;50636;45.596;5.258;2023-05-12T04:13:29;98302.94;;;16.11;64.36
64294;BME280;50636;45.596;5.258;2023-05-12T04:15:58;98305.34;;;16.13;63.98
64294;BME280;50636;45.596;5.258;2023-05-12T04:18:25;98307.09;;;16.02;63.61
64294;BME280;50636;45.596;5.258;2023-05-12T04:20:54;98314.81;;;15.87;64.13
64294;BME280;50636;45.596;5.258;2023-05-12T04:23:20;98309.25;;;15.71;64.40
64294;BME280;50636;45.596;5.258;2023-05-12T04:25:46;98307.53;;;15.60;64.99
64294;BME280;50636;45.596;5.258;2023-05-12T04:28:11;98303.69;;;15.51;65.13
64294;BME280;50636;45.596;5.258;2023-05-12T04:30:40;98297.50;;;15.62;65.89
64294;BME280;50636;45.596;5.258;2023-05-12T04:33:07;98302.38;;;15.87;65.34
64294;BME280;50636;45.596;5.258;2023-05-12T04:35:33;98294.53;;;16.14;64.68
64294;BME280;50636;45.596;5.258;2023-05-12T04:37:59;98302.34;;;16.26;63.39
64294;BME280;50636;45.596;5.258;2023-05-12T04:40:26;98306.16;;;16.13;63.56
64294;BME280;50636;45.596;5.258;2023-05-12T04:42:53;98301.03;;;16.07;63.84
64294;BME280;50636;45.596;5.258;2023-05-12T04:45:18;98302.53;;;16.20;63.91
64294;BME280;50636;45.596;5.258;2023-05-12T04:47:44;98306.84;;;16.26;63.33
64294;BME280;50636;45.596;5.258;2023-05-12T04:50:10;98315.59;;;16.04;62.88
64294;BME280;50636;45.596;5.258;2023-05-12T04:52:36;98316.56;;;15.81;63.79
64294;BME280;50636;45.596;5.258;2023-05-12T04:55:03;98320.91;;;15.70;64.61
64294;BME280;50636;45.596;5.258;2023-05-12T04:57:29;98325.50;;;15.58;63.92
64294;BME280;50636;45.596;5.258;2023-05-12T04:59:55;98323.81;;;15.52;65.20
64294;BME280;50636;45.596;5.258;2023-05-12T05:02:22;98321.56;;;15.77;64.86
64294;BME280;50636;45.596;5.258;2023-05-12T05:04:48;98326.69;;;15.84;63.64
64294;BME280;50636;45.596;5.258;2023-05-12T05:07:14;98328.69;;;15.60;64.37
64294;BME280;50636;45.596;5.258;2023-05-12T05:09:40;98331.09;;;15.45;64.58
64294;BME280;50636;45.596;5.258;2023-05-12T05:12:06;98335.25;;;15.24;65.41
64294;BME280;50636;45.596;5.258;2023-05-12T05:14:32;98335.31;;;15.12;65.82
64294;BME280;50636;45.596;5.258;2023-05-12T05:16:58;98335.28;;;14.95;66.01
64294;BME280;50636;45.596;5.258;2023-05-12T05:19:25;98334.47;;;14.94;66.67
64294;BME280;50636;45.596;5.258;2023-05-12T05:21:50;98342.34;;;15.06;66.56
64294;BME280;50636;45.596;5.258;2023-05-12T05:24:16;98343.97;;;15.07;66.58
64294;BME280;50636;45.596;5.258;2023-05-12T05:26:41;98342.13;;;15.25;66.56
64294;BME280;50636;45.596;5.258;2023-05-12T05:29:07;98346.47;;;15.31;66.42
64294;BME280;50636;45.596;5.258;2023-05-12T05:31:33;98340.63;;;15.46;66.14
64294;BME280;50636;45.596;5.258;2023-05-12T05:33:59;98345.34;;;15.61;65.55
64294;BME280;50636;45.596;5.258;2023-05-12T05:36:25;98336.69;;;15.65;64.96
64294;BME280;50636;45.596;5.258;2023-05-12T05:38:51;98340.22;;;15.71;64.90
64294;BME280;50636;45.596;5.258;2023-05-12T05:41:17;98339.97;;;15.89;64.69
64294;BME280;50636;45.596;5.258;2023-05-12T05:43:43;98339.03;;;16.17;63.84
64294;BME280;50636;45.596;5.258;2023-05-12T05:46:08;98338.75;;;16.36;62.91
64294;BME280;50636;45.596;5.258;2023-05-12T05:48:34;98338.31;;;16.44;62.00
64294;BME280;50636;45.596;5.258;2023-05-12T05:51:00;98344.41;;;16.45;61.58
64294;BME280;50636;45.596;5.258;2023-05-12T05:53:27;98347.25;;;16.16;62.33
64294;BME280;50636;45.596;5.258;2023-05-12T05:55:52;98340.56;;;16.13;62.67
64294;BME280;50636;45.596;5.258;2023-05-12T05:58:18;98347.41;;;16.09;62.39
64294;BME280;50636;45.596;5.258;2023-05-12T06:00:44;98348.47;;;16.08;63.00
64294;BME280;50636;45.596;5.258;2023-05-12T06:03:10;98354.91;;;16.17;63.00
64294;BME280;50636;45.596;5.258;2023-05-12T06:05:36;98354.22;;;16.05;62.61
64294;BME280;50636;45.596;5.258;2023-05-12T06:08:02;98351.84;;;15.87;63.22
64294;BME280;50636;45.596;5.258;2023-05-12T06:10:29;98363.06;;;15.60;63.18
64294;BME280;50636;45.596;5.258;2023-05-12T06:12:55;98355.06;;;15.38;64.54
64294;BME280;50636;45.596;5.258;2023-05-12T06:15:21;98355.22;;;15.48;64.67
64294;BME280;50636;45.596;5.258;2023-05-12T06:17:46;98361.31;;;15.66;64.28
64294;BME280;50636;45.596;5.258;2023-05-12T06:20:12;98351.72;;;15.76;64.07
64294;BME280;50636;45.596;5.258;2023-05-12T06:22:38;98353.78;;;15.91;63.93
64294;BME280;50636;45.596;5.258;2023-05-12T06:25:07;98353.75;;;16.08;63.53
64294;BME280;50636;45.596;5.258;2023-05-12T06:27:32;98356.91;;;16.27;63.06
64294;BME280;50636;45.596;5.258;2023-05-12T06:29:58;98357.91;;;16.43;62.47
64294;BME280;50636;45.596;5.258;2023-05-12T06:32:24;98360.91;;;16.52;62.04
64294;BME280;50636;45.596;5.258;2023-05-12T06:34:49;98358.88;;;16.59;61.76
64294;BME280;50636;45.596;5.258;2023-05-12T06:37:15;98366.75;;;16.76;61.65
64294;BME280;50636;45.596;5.258;2023-05-12T06:39:41;98366.91;;;16.86;61.07
64294;BME280;50636;45.596;5.258;2023-05-12T06:42:06;98367.19;;;16.90;60.66
64294;BME280;50636;45.596;5.258;2023-05-12T06:44:32;98357.34;;;16.85;60.66
64294;BME280;50636;45.596;5.258;2023-05-12T06:46:58;98366.84;;;16.81;60.62
64294;BME280;50636;45.596;5.258;2023-05-12T06:49:24;98367.84;;;16.80;60.98
64294;BME280;50636;45.596;5.258;2023-05-12T06:51:49;98366.41;;;16.67;60.91
64294;BME280;50636;45.596;5.258;2023-05-12T06:54:15;98364.38;;;16.52;60.75
64294;BME280;50636;45.596;5.258;2023-05-12T06:56:41;98368.50;;;16.43;61.58
64294;BME280;50636;45.596;5.258;2023-05-12T06:59:06;98366.28;;;16.35;61.84
64294;BME280;50636;45.596;5.258;2023-05-12T07:01:32;98369.72;;;16.35;61.95
64294;BME280;50636;45.596;5.258;2023-05-12T07:03:58;98371.81;;;16.33;61.89
64294;BME280;50636;45.596;5.258;2023-05-12T07:06:24;98369.56;;;16.42;61.64
64294;BME280;50636;45.596;5.258;2023-05-12T07:08:54;98367.50;;;16.49;61.56
64294;BME280;50636;45.596;5.258;2023-05-12T07:11:20;98367.94;;;16.63;61.19
64294;BME280;50636;45.596;5.258;2023-05-12T07:13:46;98366.50;;;16.77;60.87
64294;BME280;50636;45.596;5.258;2023-05-12T07:16:15;98367.03;;;16.96;60.40
64294;BME280;50636;45.596;5.258;2023-05-12T07:18:42;98366.66;;;17.15;59.42
64294;BME280;50636;45.596;5.258;2023-05-12T07:21:08;98361.16;;;17.22;58.88
64294;BME280;50636;45.596;5.258;2023-05-12T07:23:35;98364.78;;;17.10;57.73
64294;BME280;50636;45.596;5.258;2023-05-12T07:26:02;98366.94;;;16.91;58.49
64294;BME280;50636;45.596;5.258;2023-05-12T07:28:32;98368.47;;;16.82;58.95
64294;BME280;50636;45.596;5.258;2023-05-12T07:31:01;98356.97;;;16.76;59.30
64294;BME280;50636;45.596;5.258;2023-05-12T07:33:27;98363.19;;;16.87;59.30
64294;BME280;50636;45.596;5.258;2023-05-12T07:35:53;98358.09;;;17.08;58.77
64294;BME280;50636;45.596;5.258;2023-05-12T07:38:19;98357.25;;;17.29;58.42
64294;BME280;50636;45.596;5.258;2023-05-12T07:40:44;98353.63;;;17.41;57.98
64294;BME280;50636;45.596;5.258;2023-05-12T07:43:10;98355.28;;;17.47;57.73
64294;BME280;50636;45.596;5.258;2023-05-12T07:45:36;98359.84;;;17.56;57.77
64294;BME280;50636;45.596;5.258;2023-05-12T07:48:02;98348.88;;;17.80;57.09
64294;BME280;50636;45.596;5.258;2023-05-12T07:50:28;98354.84;;;17.98;56.14
64294;BME280;50636;45.596;5.258;2023-05-12T07:52:54;98349.06;;;18.06;55.70
64294;BME280;50636;45.596;5.258;2023-05-12T07:55:20;98345.63;;;18.10;55.52
64294;BME280;50636;45.596;5.258;2023-05-12T07:57:47;98355.75;;;18.19;55.34
64294;BME280;50636;45.596;5.258;2023-05-12T08:00:14;98347.84;;;18.29;55.22
64294;BME280;50636;45.596;5.258;2023-05-12T08:02:40;98344.72;;;18.42;54.52
64294;BME280;50636;45.596;5.258;2023-05-12T08:05:08;98343.63;;;18.38;54.85
64294;BME280;50636;45.596;5.258;2023-05-12T08:07:37;98346.22;;;18.17;54.36
64294;BME280;50636;45.596;5.258;2023-05-12T08:10:04;98344.53;;;18.06;55.02
64294;BME280;50636;45.596;5.258;2023-05-12T08:12:31;98343.59;;;18.28;54.98
64294;BME280;50636;45.596;5.258;2023-05-12T08:14:57;98338.06;;;18.40;54.06
64294;BME280;50636;45.596;5.258;2023-05-12T08:17:23;98339.97;;;18.54;53.34
64294;BME280;50636;45.596;5.258;2023-05-12T08:19:48;98342.69;;;18.70;52.92
64294;BME280;50636;45.596;5.258;2023-05-12T08:22:14;98349.94;;;18.80;52.86
64294;BME280;50636;45.596;5.258;2023-05-12T08:24:40;98342.50;;;18.97;52.49
64294;BME280;50636;45.596;5.258;2023-05-12T08:27:05;98341.47;;;19.13;52.27
64294;BME280;50636;45.596;5.258;2023-05-12T08:29:31;98339.06;;;19.38;52.15
64294;BME280;50636;45.596;5.258;2023-05-12T08:31:57;98339.88;;;19.53;51.82
64294;BME280;50636;45.596;5.258;2023-05-12T08:34:23;98330.84;;;19.70;51.27
64294;BME280;50636;45.596;5.258;2023-05-12T08:36:51;98336.94;;;19.86;50.69
64294;BME280;50636;45.596;5.258;2023-05-12T08:39:17;98338.81;;;19.90;50.32
64294;BME280;50636;45.596;5.258;2023-05-12T08:41:50;98338.25;;;19.99;50.05
64294;BME280;50636;45.596;5.258;2023-05-12T08:44:17;98336.38;;;20.04;49.96
64294;BME280;50636;45.596;5.258;2023-05-12T08:46:43;98334.25;;;20.01;49.55
64294;BME280;50636;45.596;5.258;2023-05-12T08:49:11;98339.06;;;19.94;49.53
64294;BME280;50636;45.596;5.258;2023-05-12T08:51:42;98332.66;;;19.95;49.57
64294;BME280;50636;45.596;5.258;2023-05-12T08:54:12;98338.00;;;20.00;49.33
64294;BME280;50636;45.596;5.258;2023-05-12T08:56:39;98332.91;;;20.04;48.38
64294;BME280;50636;45.596;5.258;2023-05-12T08:59:08;98331.06;;;19.94;48.47
64294;BME280;50636;45.596;5.258;2023-05-12T09:01:34;98332.97;;;19.88;48.53
64294;BME280;50636;45.596;5.258;2023-05-12T09:04:01;98334.31;;;19.81;48.76
64294;BME280;50636;45.596;5.258;2023-05-12T09:06:27;98338.81;;;19.65;49.44
64294;BME280;50636;45.596;5.258;2023-05-12T09:08:53;98338.81;;;19.65;49.79
64294;BME280;50636;45.596;5.258;2023-05-12T09:11:20;98331.38;;;19.56;49.63
64294;BME280;50636;45.596;5.258;2023-05-12T09:13:57;98336.69;;;19.41;49.55
64294;BME280;50636;45.596;5.258;2023-05-12T09:16:38;98331.91;;;19.18;50.23
64294;BME280;50636;45.596;5.258;2023-05-12T09:19:04;98332.19;;;19.26;50.23
64294;BME280;50636;45.596;5.258;2023-05-12T09:21:30;98338.56;;;19.46;50.38
64294;BME280;50636;45.596;5.258;2023-05-12T09:24:01;98333.47;;;19.60;49.85
64294;BME280;50636;45.596;5.258;2023-05-12T09:26:49;98333.75;;;19.63;49.96
64294;BME280;50636;45.596;5.258;2023-05-12T09:29:16;98328.44;;;19.63;49.86
64294;BME280;50636;45.596;5.258;2023-05-12T09:31:55;98332.69;;;19.69;49.66
64294;BME280;50636;45.596;5.258;2023-05-12T09:34:30;98330.84;;;19.75;49.62
64294;BME280;50636;45.596;5.258;2023-05-12T09:36:57;98337.22;;;19.79;49.34
64294;BME280;50636;45.596;5.258;2023-05-12T09:39:23;98334.56;;;19.84;49.19
64294;BME280;50636;45.596;5.258;2023-05-12T09:41:50;98326.81;;;19.98;48.99
64294;BME280;50636;45.596;5.258;2023-05-12T09:44:17;98326.50;;;20.15;48.63
64294;BME280;50636;45.596;5.258;2023-05-12T09:46:44;98328.28;;;20.35;48.46
64294;BME280;50636;45.596;5.258;2023-05-12T09:49:10;98322.88;;;20.61;48.00
64294;BME280;50636;45.596;5.258;2023-05-12T09:51:36;98320.09;;;20.81;46.97
64294;BME280;50636;45.596;5.258;2023-05-12T09:54:02;98320.56;;;20.88;46.29
64294;BME280;50636;45.596;5.258;2023-05-12T09:56:29;98307.38;;;21.07;46.48
64294;BME280;50636;45.596;5.258;2023-05-12T09:59:03;98322.31;;;21.43;45.09
64294;BME280;50636;45.596;5.258;2023-05-12T10:01:29;98325.19;;;21.81;44.84
64294;BME280;50636;45.596;5.258;2023-05-12T10:03:57;98321.41;;;22.35;43.25
64294;BME280;50636;45.596;5.258;2023-05-12T10:06:29;98318.41;;;22.61;42.72
64294;BME280;50636;45.596;5.258;2023-05-12T10:11:30;98315.22;;;23.16;41.77
64294;BME280;50636;45.596;5.258;2023-05-12T10:13:56;98303.94;;;23.65;41.34
64294;BME280;50636;45.596;5.258;2023-05-12T10:16:23;98309.25;;;24.26;39.80
64294;BME280;50636;45.596;5.258;2023-05-12T10:18:51;98303.16;;;24.48;39.00
64294;BME280;50636;45.596;5.258;2023-05-12T10:21:17;98307.06;;;24.56;38.62
64294;BME280;50636;45.596;5.258;2023-05-12T10:23:44;98296.53;;;24.31;38.98
64294;BME280;50636;45.596;5.258;2023-05-12T10:26:11;98306.75;;;24.43;38.70
64294;BME280;50636;45.596;5.258;2023-05-12T10:28:38;98295.63;;;24.36;38.30
64294;BME280;50636;45.596;5.258;2023-05-12T10:31:04;98295.34;;;24.10;38.57
64294;BME280;50636;45.596;5.258;2023-05-12T10:33:32;98298.00;;;23.68;39.08
64294;BME280;50636;45.596;5.258;2023-05-12T10:35:58;98290.13;;;23.44;39.60
64294;BME280;50636;45.596;5.258;2023-05-12T10:38:24;98298.75;;;23.08;40.04
64294;BME280;50636;45.596;5.258;2023-05-12T10:41:01;98288.81;;;22.71;40.76
64294;BME280;50636;45.596;5.258;2023-05-12T10:43:28;98285.84;;;22.34;41.38
64294;BME280;50636;45.596;5.258;2023-05-12T10:48:56;98281.38;;;22.06;42.54
64294;BME280;50636;45.596;5.258;2023-05-12T10:51:23;98288.47;;;22.16;42.30
64294;BME280;50636;45.596;5.258;2023-05-12T10:54:02;98281.25;;;21.92;42.04
64294;BME280;50636;45.596;5.258;2023-05-12T11:01:57;98288.38;;;21.14;43.65
64294;BME280;50636;45.596;5.258;2023-05-12T11:04:34;98284.06;;;21.18;44.18
64294;BME280;50636;45.596;5.258;2023-05-12T11:07:03;98290.13;;;21.29;43.62
64294;BME280;50636;45.596;5.258;2023-05-12T11:09:29;98285.41;;;21.50;43.30
64294;BME280;50636;45.596;5.258;2023-05-12T11:11:55;98284.72;;;21.92;43.24
64294;BME280;50636;45.596;5.258;2023-05-12T11:14:21;98276.63;;;22.46;42.44
64294;BME280;50636;45.596;5.258;2023-05-12T11:16:47;98269.44;;;22.79;41.31
64294;BME280;50636;45.596;5.258;2023-05-12T11:19:12;98265.63;;;23.04;40.94
64294;BME280;50636;45.596;5.258;2023-05-12T11:21:38;98261.44;;;23.31;40.56
64294;BME280;50636;45.596;5.258;2023-05-12T11:24:04;98263.31;;;23.77;39.50
64294;BME280;50636;45.596;5.258;2023-05-12T11:26:30;98252.88;;;24.03;38.63
64294;BME280;50636;45.596;5.258;2023-05-12T11:28:56;98246.00;;;24.25;38.29
64294;BME280;50636;45.596;5.258;2023-05-12T11:31:22;98245.78;;;24.35;37.45
64294;BME280;50636;45.596;5.258;2023-05-12T11:33:49;98244.38;;;24.74;37.07
64294;BME280;50636;45.596;5.258;2023-05-12T11:36:17;98247.56;;;25.52;35.87
64294;BME280;50636;45.596;5.258;2023-05-12T11:38:50;98242.31;;;25.79;35.32
64294;BME280;50636;45.596;5.258;2023-05-12T11:41:25;98238.16;;;25.73;35.15
64294;BME280;50636;45.596;5.258;2023-05-12T11:43:51;98239.06;;;25.59;35.35
64294;BME280;50636;45.596;5.258;2023-05-12T11:46:27;98233.75;;;25.37;35.14
64294;BME280;50636;45.596;5.258;2023-05-12T11:48:57;98227.28;;;25.38;35.10
64294;BME280;50636;45.596;5.258;2023-05-12T11:51:24;98232.13;;;25.67;35.45
64294;BME280;50636;45.596;5.258;2023-05-12T11:53:52;98225.72;;;26.60;33.85
64294;BME280;50636;45.596;5.258;2023-05-12T11:56:20;98222.25;;;27.89;32.60
64294;BME280;50636;45.596;5.258;2023-05-12T11:58:57;98219.41;;;28.06;31.81
64294;BME280;50636;45.596;5.258;2023-05-12T12:01:24;98217.53;;;27.68;31.58
64294;BME280;50636;45.596;5.258;2023-05-12T12:03:51;98226.78;;;27.03;32.03
64294;BME280;50636;45.596;5.258;2023-05-12T12:06:18;98219.97;;;26.53;32.23
64294;BME280;50636;45.596;5.258;2023-05-12T12:08:58;98218.50;;;26.03;33.18
64294;BME280;50636;45.596;5.258;2023-05-12T12:11:27;98206.59;;;25.87;33.04
64294;BME280;50636;45.596;5.258;2023-05-12T12:13:55;98211.66;;;25.88;33.68
64294;BME280;50636;45.596;5.258;2023-05-12T12:16:28;98207.91;;;26.16;33.76
64294;BME280;50636;45.596;5.258;2023-05-12T12:18:54;98212.84;;;26.31;33.04
64294;BME280;50636;45.596;5.258;2023-05-12T12:21:21;98210.00;;;26.19;32.47
64294;BME280;50636;45.596;5.258;2023-05-12T12:23:47;98202.84;;;25.97;32.72
64294;BME280;50636;45.596;5.258;2023-05-12T12:26:14;98199.84;;;25.98;32.17
64294;BME280;50636;45.596;5.258;2023-05-12T12:28:48;98207.94;;;26.33;31.97
64294;BME280;50636;45.596;5.258;2023-05-12T12:31:14;98204.28;;;26.90;31.81
64294;BME280;50636;45.596;5.258;2023-05-12T12:33:41;98197.72;;;27.64;31.09
64294;BME280;50636;45.596;5.258;2023-05-12T12:36:07;98188.25;;;27.58;30.48
64294;BME280;50636;45.596;5.258;2023-05-12T12:38:33;98191.63;;;26.90;30.23
64294;BME280;50636;45.596;5.258;2023-05-12T12:40:59;98178.66;;;26.93;31.45
64294;BME280;50636;45.596;5.258;2023-05-12T12:43:25;98176.59;;;27.75;30.53
64294;BME280;50636;45.596;5.258;2023-05-12T12:45:51;98174.00;;;28.08;29.67
64294;BME280;50636;45.596;5.258;2023-05-12T12:48:19;98175.13;;;28.71;28.74
64294;BME280;50636;45.596;5.258;2023-05-12T12:50:45;98164.69;;;29.39;28.00
64294;BME280;50636;45.596;5.258;2023-05-12T12:53:11;98161.59;;;29.04;28.17
64294;BME280;50636;45.596;5.258;2023-05-12T12:55:36;98166.72;;;28.30;29.25
64294;BME280;50636;45.596;5.258;2023-05-12T12:58:02;98163.28;;;27.70;29.23
64294;BME280;50636;45.596;5.258;2023-05-12T13:00:28;98154.78;;;27.59;29.74
64294;BME280;50636;45.596;5.258;2023-05-12T13:02:54;98159.34;;;27.67;30.21
64294;BME280;50636;45.596;5.258;2023-05-12T13:05:20;98154.44;;;27.22;30.60
64294;BME280;50636;45.596;5.258;2023-05-12T13:07:46;98169.00;;;26.48;31.56
64294;BME280;50636;45.596;5.258;2023-05-12T13:10:12;98175.41;;;25.68;32.91